Time,TemperatureF,DewpointF,PressureIn,WindDirection,WindDirectionDegrees,WindSpeedMPH,WindSpeedGustMPH,Humidity,HourlyPrecipIn,Conditions,Clouds,dailyrainin,SoftwareType,DateUTC
2013-04-01 00:01:00,36.0,27.0,29.91,NE,49,0.0,0.0,70,0.00,,,0.00,,2013-04-01 06:01:00,
2013-04-01 00:12:00,36.0,27.0,29.91,NE,49,0.0,0.0,70,0.00,,,0.00,,2013-04-01 06:12:00,
2013-04-01 00:22:00,36.0,28.0,29.91,NE,49,0.0,0.0,71,0.00,,,0.00,,2013-04-01 06:22:00,
2013-04-01 00:32:00,36.0,28.0,29.91,NE,49,0.0,0.0,71,0.00,,,0.00,,2013-04-01 06:32:00,
2013-04-01 00:43:00,36.0,28.0,29.91,NE,49,0.0,0.0,71,0.00,,,0.00,,2013-04-01 06:43:00,
2013-04-01 00:52:00,36.0,28.0,29.92,NE,49,0.0,1.0,71,0.00,,,0.00,,2013-04-01 06:52:00,
2013-04-01 01:02:00,36.0,28.0,29.92,NE,49,0.0,1.0,71,0.00,,,0.00,,2013-04-01 07:02:00,
2013-04-01 01:12:00,36.0,28.0,29.92,NE,49,0.0,1.0,71,0.00,,,0.00,,2013-04-01 07:12:00,
2013-04-01 01:21:00,35.0,27.0,29.91,NE,49,0.0,0.0,72,0.00,,,0.00,,2013-04-01 07:21:00,
2013-04-01 01:31:00,35.0,27.0,29.91,NE,49,0.0,0.0,72,0.00,,,0.00,,2013-04-01 07:31:00,
2013-04-01 01:43:00,35.0,27.0,29.91,NE,49,0.0,0.0,72,0.00,,,0.00,,2013-04-01 07:43:00,
2013-04-01 01:52:00,34.0,26.0,29.93,NE,49,0.0,1.0,73,0.00,,,0.00,,2013-04-01 07:52:00,
2013-04-01 02:02:00,34.0,26.0,29.93,NE,49,0.0,1.0,73,0.00,,,0.00,,2013-04-01 08:02:00,
2013-04-01 02:12:00,34.0,26.0,29.93,NE,49,0.0,1.0,73,0.00,,,0.00,,2013-04-01 08:12:00,
2013-04-01 02:21:00,34.0,26.0,29.93,NE,49,0.0,0.0,73,0.00,,,0.00,,2013-04-01 08:21:00,
2013-04-01 02:31:00,34.0,26.0,29.93,NE,49,0.0,0.0,73,0.00,,,0.00,,2013-04-01 08:31:00,
2013-04-01 02:43:00,34.0,26.0,29.93,NE,49,0.0,0.0,73,0.00,,,0.00,,2013-04-01 08:43:00,
2013-04-01 02:52:00,34.0,27.0,29.93,NE,49,0.0,0.0,74,0.00,,,0.00,,2013-04-01 08:52:00,
2013-04-01 03:02:00,34.0,27.0,29.93,NE,49,0.0,0.0,74,0.00,,,0.00,,2013-04-01 09:02:00,
2013-04-01 03:12:00,34.0,27.0,29.93,NE,49,0.0,0.0,74,0.00,,,0.00,,2013-04-01 09:12:00,
2013-04-01 03:21:00,33.0,26.0,29.91,NE,49,0.0,1.0,76,0.00,,,0.00,,2013-04-01 09:21:00,
2013-04-01 03:32:00,33.0,26.0,29.91,NE,49,0.0,1.0,76,0.00,,,0.00,,2013-04-01 09:32:00,
2013-04-01 03:43:00,33.0,26.0,29.91,NE,49,0.0,1.0,76,0.00,,,0.00,,2013-04-01 09:43:00,
2013-04-01 03:53:00,33.0,26.0,29.92,NW,322,1.0,2.0,76,0.00,,,0.00,,2013-04-01 09:53:00,
2013-04-01 04:02:00,33.0,26.0,29.92,NW,322,1.0,2.0,76,0.00,,,0.00,,2013-04-01 10:02:00,
2013-04-01 04:12:00,33.0,26.0,29.92,NW,322,1.0,2.0,76,0.00,,,0.00,,2013-04-01 10:12:00,
2013-04-01 04:22:00,33.0,26.0,29.92,NW,322,0.0,1.0,76,0.00,,,0.00,,2013-04-01 10:22:00,
2013-04-01 04:32:00,33.0,26.0,29.92,NW,322,0.0,1.0,76,0.00,,,0.00,,2013-04-01 10:32:00,
2013-04-01 04:42:00,33.0,26.0,29.92,NW,322,0.0,1.0,76,0.00,,,0.00,,2013-04-01 10:42:00,
2013-04-01 04:53:00,32.0,26.0,29.92,North,11,0.0,1.0,78,0.00,,,0.00,,2013-04-01 10:53:00,
2013-04-01 05:02:00,32.0,26.0,29.92,North,11,0.0,1.0,78,0.00,,,0.00,,2013-04-01 11:02:00,
2013-04-01 05:12:00,32.0,26.0,29.92,North,11,0.0,1.0,78,0.00,,,0.00,,2013-04-01 11:12:00,
2013-04-01 05:22:00,32.0,26.0,29.92,North,11,0.0,1.0,79,0.00,,,0.00,,2013-04-01 11:22:00,
2013-04-01 05:32:00,32.0,26.0,29.92,North,11,0.0,1.0,79,0.00,,,0.00,,2013-04-01 11:32:00,
2013-04-01 05:43:00,32.0,26.0,29.92,North,11,0.0,1.0,79,0.00,,,0.00,,2013-04-01 11:43:00,
2013-04-01 05:53:00,32.0,26.0,29.93,NW,323,0.0,2.0,79,0.00,,,0.00,,2013-04-01 11:53:00,
2013-04-01 06:02:00,32.0,26.0,29.93,NW,323,0.0,2.0,79,0.00,,,0.00,,2013-04-01 12:02:00,
2013-04-01 06:12:00,32.0,26.0,29.93,NW,323,0.0,2.0,79,0.00,,,0.00,,2013-04-01 12:12:00,
2013-04-01 06:22:00,31.0,26.0,29.93,NW,323,0.0,2.0,80,0.00,,,0.00,,2013-04-01 12:22:00,
2013-04-01 06:32:00,31.0,26.0,29.93,NW,323,0.0,2.0,80,0.00,,,0.00,,2013-04-01 12:32:00,
2013-04-01 06:42:00,31.0,26.0,29.93,NW,323,0.0,2.0,80,0.00,,,0.00,,2013-04-01 12:42:00,
2013-04-01 06:52:00,31.0,26.0,29.94,NW,323,0.0,1.0,81,0.00,,,0.00,,2013-04-01 12:52:00,
2013-04-01 07:02:00,31.0,26.0,29.94,NW,323,0.0,1.0,81,0.00,,,0.00,,2013-04-01 13:02:00,
2013-04-01 07:12:00,31.0,26.0,29.94,NW,323,0.0,1.0,81,0.00,,,0.00,,2013-04-01 13:12:00,
2013-04-01 07:21:00,30.0,25.0,29.93,NW,323,0.0,0.0,82,0.00,,,0.00,,2013-04-01 13:21:00,
2013-04-01 07:32:00,30.0,25.0,29.93,NW,323,0.0,0.0,82,0.00,,,0.00,,2013-04-01 13:32:00,
2013-04-01 07:42:00,30.0,25.0,29.93,NW,323,0.0,0.0,82,0.00,,,0.00,,2013-04-01 13:42:00,
2013-04-01 07:52:00,30.0,25.0,29.94,NW,323,0.0,0.0,82,0.00,,,0.00,,2013-04-01 13:52:00,
2013-04-01 08:02:00,30.0,25.0,29.94,NW,323,0.0,0.0,82,0.00,,,0.00,,2013-04-01 14:02:00,
2013-04-01 08:12:00,30.0,25.0,29.94,NW,323,0.0,0.0,82,0.00,,,0.00,,2013-04-01 14:12:00,
2013-04-01 08:21:00,30.0,25.0,29.94,NW,323,0.0,0.0,83,0.00,,,0.00,,2013-04-01 14:21:00,
2013-04-01 08:32:00,30.0,25.0,29.94,NW,323,0.0,0.0,83,0.00,,,0.00,,2013-04-01 14:32:00,
2013-04-01 08:42:00,30.0,25.0,29.94,NW,323,0.0,0.0,83,0.00,,,0.00,,2013-04-01 14:42:00,
2013-04-01 08:52:00,32.0,27.0,29.94,NW,323,0.0,0.0,81,0.00,,,0.00,,2013-04-01 14:52:00,
2013-04-01 09:01:00,32.0,27.0,29.94,NW,323,0.0,0.0,81,0.00,,,0.00,,2013-04-01 15:01:00,
2013-04-01 09:12:00,32.0,27.0,29.94,NW,323,0.0,0.0,81,0.00,,,0.00,,2013-04-01 15:12:00,
2013-04-01 09:22:00,40.0,30.0,29.94,NW,323,0.0,0.0,68,0.00,,,0.00,,2013-04-01 15:22:00,
2013-04-01 09:53:00,44.0,30.0,29.93,NW,323,1.0,2.0,57,0.00,,,0.00,,2013-04-01 15:53:00,
2013-04-01 10:22:00,45.0,28.0,29.93,SSE,148,1.0,3.0,51,0.00,,,0.00,,2013-04-01 16:22:00,
2013-04-01 10:52:00,48.0,30.0,29.93,NNW,329,0.0,4.0,49,0.00,,,0.00,,2013-04-01 16:52:00,
2013-04-01 11:12:00,48.0,30.0,29.93,NNW,329,0.0,4.0,49,0.00,,,0.00,,2013-04-01 17:12:00,
2013-04-01 11:42:00,49.0,30.0,29.94,ESE,113,1.0,4.0,48,0.00,,,0.00,,2013-04-01 17:42:00,
2013-04-01 11:52:00,52.0,30.0,29.94,SE,130,0.0,2.0,43,0.00,,,0.00,,2013-04-01 17:52:00,
2013-04-01 12:02:00,52.0,30.0,29.94,SE,130,0.0,2.0,43,0.00,,,0.00,,2013-04-01 18:02:00,
2013-04-01 12:12:00,52.0,30.0,29.94,SE,130,0.0,2.0,43,0.00,,,0.00,,2013-04-01 18:12:00,
2013-04-01 12:21:00,54.0,30.0,29.93,SW,221,1.0,5.0,39,0.00,,,0.00,,2013-04-01 18:21:00,
2013-04-01 12:32:00,54.0,30.0,29.93,SW,221,1.0,5.0,39,0.00,,,0.00,,2013-04-01 18:32:00,
2013-04-01 12:43:00,54.0,30.0,29.93,SW,221,1.0,5.0,39,0.00,,,0.00,,2013-04-01 18:43:00,
2013-04-01 12:52:00,55.0,30.0,29.93,NE,50,1.0,5.0,38,0.00,,,0.00,,2013-04-01 18:52:00,
2013-04-01 13:02:00,55.0,30.0,29.93,NE,50,1.0,5.0,38,0.00,,,0.00,,2013-04-01 19:02:00,
2013-04-01 13:12:00,55.0,30.0,29.93,NE,50,1.0,5.0,38,0.00,,,0.00,,2013-04-01 19:12:00,
2013-04-01 13:22:00,56.0,31.0,29.92,North,11,1.0,5.0,38,0.00,,,0.00,,2013-04-01 19:22:00,
2013-04-01 13:31:00,56.0,31.0,29.92,North,11,1.0,5.0,38,0.00,,,0.00,,2013-04-01 19:31:00,
2013-04-01 13:42:00,56.0,31.0,29.92,North,11,1.0,5.0,38,0.00,,,0.00,,2013-04-01 19:42:00,
2013-04-01 13:53:00,58.0,31.0,29.91,North,355,1.0,5.0,35,0.00,,,0.00,,2013-04-01 19:53:00,
2013-04-01 14:01:00,58.0,31.0,29.91,North,355,1.0,5.0,35,0.00,,,0.00,,2013-04-01 20:01:00,
2013-04-01 14:22:00,60.0,32.0,29.92,NE,55,1.0,6.0,34,0.00,,,0.00,,2013-04-01 20:22:00,
2013-04-01 14:32:00,60.0,32.0,29.92,NE,55,1.0,6.0,34,0.00,,,0.00,,2013-04-01 20:32:00,
2013-04-01 14:43:00,60.0,32.0,29.92,NE,55,1.0,6.0,34,0.00,,,0.00,,2013-04-01 20:43:00,
2013-04-01 14:52:00,61.0,29.0,29.90,ESE,109,1.0,5.0,30,0.00,,,0.00,,2013-04-01 20:52:00,
2013-04-01 15:02:00,61.0,29.0,29.90,ESE,109,1.0,5.0,30,0.00,,,0.00,,2013-04-01 21:02:00,
2013-04-01 15:11:00,61.0,29.0,29.90,ESE,109,1.0,5.0,30,0.00,,,0.00,,2013-04-01 21:11:00,
2013-04-01 15:22:00,61.0,30.0,29.90,East,80,1.0,4.0,31,0.00,,,0.00,,2013-04-01 21:22:00,
2013-04-01 15:32:00,61.0,30.0,29.90,East,80,1.0,4.0,31,0.00,,,0.00,,2013-04-01 21:32:00,
2013-04-01 15:43:00,61.0,30.0,29.90,East,80,1.0,4.0,31,0.00,,,0.00,,2013-04-01 21:43:00,
2013-04-01 15:53:00,61.0,28.0,29.89,WSW,239,2.0,7.0,28,0.00,,,0.00,,2013-04-01 21:53:00,
2013-04-01 16:02:00,61.0,28.0,29.89,WSW,239,2.0,7.0,28,0.00,,,0.00,,2013-04-01 22:02:00,
2013-04-01 16:12:00,61.0,28.0,29.89,WSW,239,2.0,7.0,28,0.00,,,0.00,,2013-04-01 22:12:00,
2013-04-01 16:22:00,60.0,27.0,29.90,NNW,341,1.0,5.0,28,0.00,,,0.00,,2013-04-01 22:22:00,
2013-04-01 16:32:00,60.0,27.0,29.90,NNW,341,1.0,5.0,28,0.00,,,0.00,,2013-04-01 22:32:00,
2013-04-01 16:43:00,60.0,27.0,29.90,NNW,341,1.0,5.0,28,0.00,,,0.00,,2013-04-01 22:43:00,
2013-04-01 16:52:00,61.0,27.0,29.89,South,173,2.0,5.0,27,0.00,,,0.00,,2013-04-01 22:52:00,
2013-04-01 17:02:00,61.0,27.0,29.89,South,173,2.0,5.0,27,0.00,,,0.00,,2013-04-01 23:02:00,
2013-04-01 17:12:00,61.0,27.0,29.89,South,173,2.0,5.0,27,0.00,,,0.00,,2013-04-01 23:12:00,
2013-04-01 17:22:00,60.0,26.0,29.89,NNW,333,2.0,6.0,27,0.00,,,0.00,,2013-04-01 23:22:00,
2013-04-01 17:32:00,60.0,26.0,29.89,NNW,333,2.0,6.0,27,0.00,,,0.00,,2013-04-01 23:32:00,
2013-04-01 17:43:00,60.0,26.0,29.89,NNW,333,2.0,6.0,27,0.00,,,0.00,,2013-04-01 23:43:00,
2013-04-01 17:53:00,60.0,26.0,29.87,ESE,123,1.0,3.0,27,0.00,,,0.00,,2013-04-01 23:53:00,
2013-04-01 18:02:00,60.0,26.0,29.87,ESE,123,1.0,3.0,27,0.00,,,0.00,,2013-04-02 00:02:00,
2013-04-01 18:11:00,60.0,26.0,29.87,ESE,123,1.0,3.0,27,0.00,,,0.00,,2013-04-02 00:11:00,
2013-04-01 18:21:00,60.0,26.0,29.86,East,94,0.0,2.0,27,0.00,,,0.00,,2013-04-02 00:21:00,
2013-04-01 18:32:00,60.0,26.0,29.86,East,94,0.0,2.0,27,0.00,,,0.00,,2013-04-02 00:32:00,
2013-04-01 18:43:00,60.0,26.0,29.86,East,94,0.0,2.0,27,0.00,,,0.00,,2013-04-02 00:43:00,
2013-04-01 18:52:00,59.0,28.0,29.87,ENE,72,0.0,2.0,31,0.00,,,0.00,,2013-04-02 00:52:00,
2013-04-01 19:01:00,59.0,28.0,29.87,ENE,72,0.0,2.0,31,0.00,,,0.00,,2013-04-02 01:01:00,
2013-04-01 19:11:00,59.0,28.0,29.87,ENE,72,0.0,2.0,31,0.00,,,0.00,,2013-04-02 01:11:00,
2013-04-01 19:21:00,58.0,26.0,29.87,ESE,120,0.0,2.0,29,0.00,,,0.00,,2013-04-02 01:21:00,
2013-04-01 19:31:00,58.0,26.0,29.87,ESE,120,0.0,2.0,29,0.00,,,0.00,,2013-04-02 01:31:00,
2013-04-01 19:43:00,58.0,26.0,29.87,ESE,120,0.0,2.0,29,0.00,,,0.00,,2013-04-02 01:43:00,
2013-04-01 19:52:00,55.0,27.0,29.88,ESE,120,0.0,1.0,34,0.00,,,0.00,,2013-04-02 01:52:00,
2013-04-01 20:01:00,55.0,27.0,29.88,ESE,120,0.0,1.0,34,0.00,,,0.00,,2013-04-02 02:01:00,
2013-04-01 20:12:00,55.0,27.0,29.88,ESE,120,0.0,1.0,34,0.00,,,0.00,,2013-04-02 02:12:00,
2013-04-01 20:21:00,52.0,31.0,29.88,ESE,120,0.0,0.0,45,0.00,,,0.00,,2013-04-02 02:21:00,
2013-04-01 20:32:00,52.0,31.0,29.88,ESE,120,0.0,0.0,45,0.00,,,0.00,,2013-04-02 02:32:00,
2013-04-01 20:42:00,52.0,31.0,29.88,ESE,120,0.0,0.0,45,0.00,,,0.00,,2013-04-02 02:42:00,
2013-04-01 20:52:00,47.0,30.0,29.89,ESE,120,0.0,0.0,52,0.00,,,0.00,,2013-04-02 02:52:00,
2013-04-01 21:01:00,47.0,30.0,29.89,ESE,120,0.0,0.0,52,0.00,,,0.00,,2013-04-02 03:01:00,
2013-04-01 21:12:00,47.0,30.0,29.89,ESE,120,0.0,0.0,52,0.00,,,0.00,,2013-04-02 03:12:00,
2013-04-01 21:21:00,45.0,30.0,29.89,ESE,120,0.0,1.0,55,0.00,,,0.00,,2013-04-02 03:21:00,
2013-04-01 21:33:00,45.0,30.0,29.89,ESE,120,0.0,1.0,55,0.00,,,0.00,,2013-04-02 03:33:00,
2013-04-01 21:43:00,45.0,30.0,29.89,ESE,120,0.0,1.0,55,0.00,,,0.00,,2013-04-02 03:43:00,
2013-04-01 21:53:00,43.0,30.0,29.90,ESE,120,0.0,2.0,60,0.00,,,0.00,,2013-04-02 03:53:00,
2013-04-01 22:02:00,43.0,30.0,29.90,ESE,120,0.0,2.0,60,0.00,,,0.00,,2013-04-02 04:02:00,
2013-04-01 22:12:00,43.0,30.0,29.90,ESE,120,0.0,2.0,60,0.00,,,0.00,,2013-04-02 04:12:00,
2013-04-01 22:22:00,41.0,30.0,29.91,ESE,120,0.0,0.0,65,0.00,,,0.00,,2013-04-02 04:22:00,
2013-04-01 22:32:00,41.0,30.0,29.91,ESE,120,0.0,0.0,65,0.00,,,0.00,,2013-04-02 04:32:00,
2013-04-01 22:43:00,41.0,30.0,29.91,ESE,120,0.0,0.0,65,0.00,,,0.00,,2013-04-02 04:43:00,
2013-04-01 22:53:00,40.0,29.0,29.91,ESE,120,0.0,0.0,65,0.00,,,0.00,,2013-04-02 04:53:00,
2013-04-01 23:01:00,40.0,29.0,29.91,ESE,120,0.0,0.0,65,0.00,,,0.00,,2013-04-02 05:01:00,
2013-04-01 23:12:00,40.0,29.0,29.91,ESE,120,0.0,0.0,65,0.00,,,0.00,,2013-04-02 05:12:00,
2013-04-01 23:22:00,40.0,29.0,29.90,ESE,120,0.0,1.0,65,0.00,,,0.00,,2013-04-02 05:22:00,
2013-04-01 23:32:00,40.0,29.0,29.90,ESE,120,0.0,1.0,65,0.00,,,0.00,,2013-04-02 05:32:00,
2013-04-01 23:43:00,40.0,29.0,29.90,ESE,120,0.0,1.0,65,0.00,,,0.00,,2013-04-02 05:43:00,
2013-04-01 23:52:00,39.0,28.0,29.91,ESE,120,0.0,0.0,65,0.00,,,0.00,,2013-04-02 05:52:00,